Time;durP1;ratioP1;P1;durP2;ratioP2;P2;SDS_P1;SDS_P2;PMS_P1;PMS_P2;Temp;Humidity;BMP_temperature;BMP_pressure;BME280_temperature;BME280_humidity;BME280_pressure;Samples;Min_cycle;Max_cycle;Signal;HPM_P1;HPM_P2
2020/12/10 00:00:11;;;;;;;20.73;10.10;;;2.60;99.90;;;;;;4985196;28;20700;-93
2020/12/10 00:02:37;;;;;;;19.80;9.67;;;2.60;99.90;;;;;;4966462;28;20224;-94
2020/12/10 00:05:13;;;;;;;25.50;11.17;;;2.60;99.90;;;;;;4967532;28;20223;-93
2020/12/10 00:07:39;;;;;;;17.27;11.93;;;2.70;99.90;;;;;;4967481;28;20223;-93
2020/12/10 00:10:09;;;;;;;11.90;6.50;;;2.60;99.90;;;;;;4985405;28;21169;-94
2020/12/10 00:12:43;;;;;;;16.33;11.73;;;2.60;99.90;;;;;;4941922;28;20715;-93
2020/12/10 00:15:10;;;;;;;14.23;9.97;;;2.60;99.90;;;;;;4965704;28;20212;-92
2020/12/10 00:17:36;;;;;;;18.53;11.73;;;2.60;99.90;;;;;;4986364;28;20224;-92
2020/12/10 00:20:04;;;;;;;23.00;10.87;;;2.60;99.90;;;;;;4983819;28;20299;-94
2020/12/10 00:22:34;;;;;;;27.70;12.37;;;2.60;99.90;;;;;;4982412;28;20275;-92
2020/12/10 00:25:01;;;;;;;24.17;11.17;;;2.60;99.90;;;;;;4968215;28;20207;-93
2020/12/10 00:27:27;;;;;;;21.87;8.67;;;2.60;99.90;;;;;;4981682;28;21090;-93
2020/12/10 00:29:57;;;;;;;20.77;14.17;;;2.70;99.90;;;;;;4965707;28;20618;-92
2020/12/10 00:32:25;;;;;;;18.20;11.30;;;2.60;99.90;;;;;;4965565;28;20220;-93
2020/12/10 00:34:57;;;;;;;6.70;6.07;;;2.70;99.90;;;;;;4966775;28;20226;-92
2020/12/10 00:37:27;;;;;;;24.63;14.23;;;2.60;99.90;;;;;;4968328;28;20267;-93
2020/12/10 00:39:54;;;;;;;20.87;11.87;;;2.70;99.90;;;;;;4970712;28;20642;-94
2020/12/10 00:42:20;;;;;;;20.10;10.27;;;2.70;99.90;;;;;;4952069;28;20692;-94
2020/12/10 00:44:46;;;;;;;19.43;14.33;;;2.60;99.90;;;;;;4957750;28;20227;-93
2020/12/10 00:47:18;;;;;;;15.97;9.83;;;2.70;99.90;;;;;;4968652;28;20307;-92
2020/12/10 00:49:44;;;;;;;15.80;10.00;;;2.70;99.90;;;;;;4967239;28;20318;-93
2020/12/10 00:52:10;;;;;;;17.20;11.93;;;2.70;99.90;;;;;;4967790;28;20970;-93
2020/12/10 00:54:36;;;;;;;23.53;14.63;;;2.70;99.90;;;;;;4968707;28;20191;-94
2020/12/10 00:57:02;;;;;;;19.57;9.57;;;2.70;99.90;;;;;;4983542;28;20231;-92
2020/12/10 00:59:28;;;;;;;17.40;11.80;;;2.70;99.90;;;;;;4966461;28;20274;-93
2020/12/10 01:01:54;;;;;;;9.13;7.50;;;2.70;99.90;;;;;;4968066;28;20299;-93
2020/12/10 01:04:20;;;;;;;11.00;7.63;;;2.70;99.90;;;;;;4968813;28;20185;-93
2020/12/10 01:06:46;;;;;;;13.63;7.60;;;2.70;99.90;;;;;;4970075;28;20207;-93
2020/12/10 01:09:11;;;;;;;35.63;15.40;;;2.70;99.90;;;;;;4970227;28;20322;-93
2020/12/10 01:11:37;;;;;;;20.60;10.50;;;2.60;99.90;;;;;;4968293;28;20224;-96
2020/12/10 01:14:07;;;;;;;8.87;7.13;;;2.60;99.90;;;;;;4985622;28;20223;-95
2020/12/10 01:16:35;;;;;;;13.57;7.37;;;2.60;99.90;;;;;;4965828;28;20228;-94
2020/12/10 01:19:01;;;;;;;18.03;12.67;;;2.60;99.90;;;;;;4967975;28;20192;-93
2020/12/10 01:21:33;;;;;;;14.83;11.50;;;2.60;99.90;;;;;;4965276;28;20786;-93
2020/12/10 01:24:03;;;;;;;22.87;12.70;;;2.60;99.90;;;;;;4982356;28;20216;-94
2020/12/10 01:26:33;;;;;;;20.53;10.30;;;2.60;99.90;;;;;;4965912;28;20215;-94
2020/12/10 01:29:00;;;;;;;16.43;10.90;;;2.60;99.90;;;;;;4951119;28;20684;-94
2020/12/10 01:31:27;;;;;;;16.87;9.37;;;2.60;99.90;;;;;;4966536;28;20346;-95
2020/12/10 01:33:56;;;;;;;26.30;13.67;;;2.50;99.90;;;;;;4969104;28;20546;-96
2020/12/10 01:36:24;;;;;;;25.17;15.67;;;2.50;99.90;;;;;;4966397;28;20696;-94
2020/12/10 01:38:53;;;;;;;15.13;9.10;;;2.50;99.90;;;;;;4957188;28;20318;-94
2020/12/10 01:41:20;;;;;;;26.27;11.63;;;2.50;99.90;;;;;;4969045;28;20231;-94
2020/12/10 01:43:46;;;;;;;21.87;11.57;;;2.50;99.90;;;;;;4976070;28;20224;-94
2020/12/10 01:46:13;;;;;;;28.60;10.10;;;2.50;99.90;;;;;;4975172;28;20541;-94
2020/12/10 01:48:43;;;;;;;27.93;12.77;;;2.50;99.90;;;;;;4971927;28;20180;-94
2020/12/10 01:51:11;;;;;;;16.47;9.27;;;2.50;99.90;;;;;;4970520;28;20263;-94
2020/12/10 01:53:37;;;;;;;14.60;10.27;;;2.40;99.90;;;;;;4990937;28;20220;-94
2020/12/10 01:56:03;;;;;;;21.10;12.40;;;2.40;99.90;;;;;;4972006;28;20954;-94
2020/12/10 01:58:29;;;;;;;10.37;6.87;;;2.40;99.90;;;;;;4987875;28;20227;-94
2020/12/10 02:00:56;;;;;;;12.77;9.80;;;2.40;99.90;;;;;;4987891;28;20290;-94
2020/12/10 02:03:22;;;;;;;16.73;5.30;;;2.40;99.90;;;;;;4970382;28;20211;-95
2020/12/10 02:05:50;;;;;;;9.07;8.37;;;2.40;99.90;;;;;;4979317;28;20270;-93
2020/12/10 02:08:19;;;;;;;21.43;10.50;;;2.50;99.90;;;;;;4970939;28;20230;-94
2020/12/10 02:10:45;;;;;;;8.13;6.63;;;2.50;99.90;;;;;;4969151;28;20262;-94
2020/12/10 02:13:13;;;;;;;4.93;4.43;;;2.50;99.90;;;;;;4986881;28;20184;-94
2020/12/10 02:15:39;;;;;;;8.13;7.07;;;2.40;99.90;;;;;;4971376;28;21586;-94
2020/12/10 02:18:06;;;;;;;17.27;9.57;;;2.40;99.90;;;;;;4970320;28;20215;-94
2020/12/10 02:20:33;;;;;;;22.20;10.13;;;2.50;99.90;;;;;;4970508;28;20226;-94
2020/12/10 02:23:06;;;;;;;14.30;11.10;;;2.40;99.90;;;;;;4972813;28;20286;-96
2020/12/10 02:25:33;;;;;;;14.87;10.27;;;2.40;99.90;;;;;;4996658;28;21004;-93
2020/12/10 02:28:09;;;;;;;17.23;10.40;;;2.40;99.90;;;;;;4991755;28;20199;-94
2020/12/10 02:30:35;;;;;;;23.77;6.83;;;2.40;99.90;;;;;;4962172;28;20215;-94
2020/12/10 02:33:05;;;;;;;24.47;8.13;;;2.40;99.90;;;;;;4969345;28;20230;-95
2020/12/10 02:35:31;;;;;;;13.73;6.10;;;2.50;99.90;;;;;;4970404;28;21067;-94
2020/12/10 02:38:02;;;;;;;9.13;6.43;;;2.40;99.90;;;;;;4970030;28;20224;-94
2020/12/10 02:40:35;;;;;;;5.60;5.07;;;2.40;99.90;;;;;;4959669;28;20412;-94
2020/12/10 02:43:04;;;;;;;9.70;5.77;;;2.40;99.90;;;;;;4986588;28;20187;-94
2020/12/10 02:45:30;;;;;;;14.00;6.57;;;2.40;99.90;;;;;;4969678;28;20212;-94
2020/12/10 02:47:56;;;;;;;10.93;8.03;;;2.40;99.90;;;;;;4972430;28;20255;-95
2020/12/10 02:50:27;;;;;;;6.93;6.30;;;2.50;99.90;;;;;;4972449;28;20238;-93
2020/12/10 02:52:56;;;;;;;16.17;8.00;;;2.40;99.90;;;;;;4972718;28;20580;-95
2020/12/10 02:55:21;;;;;;;9.97;8.60;;;2.50;99.90;;;;;;4970889;28;20184;-93
2020/12/10 02:57:47;;;;;;;11.13;8.17;;;2.50;99.90;;;;;;4981745;28;20852;-94
2020/12/10 03:00:16;;;;;;;15.53;6.63;;;2.50;99.90;;;;;;4989061;28;20296;-93
2020/12/10 03:02:41;;;;;;;12.30;9.03;;;2.50;99.90;;;;;;4970938;28;20274;-93
2020/12/10 03:05:07;;;;;;;13.20;10.07;;;2.50;99.90;;;;;;4972161;28;20588;-93
2020/12/10 03:07:34;;;;;;;7.37;6.77;;;2.50;99.90;;;;;;4965436;28;20220;-94
2020/12/10 03:10:01;;;;;;;12.50;4.30;;;2.50;99.90;;;;;;4974730;28;20642;-95
2020/12/10 03:12:27;;;;;;;11.67;6.27;;;2.50;99.90;;;;;;4972719;28;20223;-93
2020/12/10 03:14:53;;;;;;;11.97;8.17;;;2.50;99.90;;;;;;4970901;28;20220;-94
2020/12/10 03:17:19;;;;;;;17.30;9.87;;;2.50;99.90;;;;;;4932205;28;20220;-93
2020/12/10 03:19:44;;;;;;;7.33;5.60;;;2.50;99.90;;;;;;4987688;28;21005;-95
2020/12/10 03:22:13;;;;;;;17.27;7.93;;;2.60;99.90;;;;;;4972890;28;20172;-94
2020/12/10 03:24:40;;;;;;;22.03;10.73;;;2.50;99.90;;;;;;4998662;28;20192;-94
2020/12/10 03:27:08;;;;;;;12.20;6.37;;;2.50;99.90;;;;;;4988778;28;20227;-93
2020/12/10 03:29:37;;;;;;;9.87;7.80;;;2.50;99.90;;;;;;4971605;28;20235;-95
2020/12/10 03:32:03;;;;;;;11.57;8.00;;;2.50;99.90;;;;;;4978136;28;20250;-95
2020/12/10 03:34:32;;;;;;;9.33;5.63;;;2.50;99.90;;;;;;4972774;28;20223;-94
2020/12/10 03:36:59;;;;;;;12.80;7.43;;;2.50;99.90;;;;;;4990439;28;20898;-94
2020/12/10 03:39:27;;;;;;;8.40;5.10;;;2.50;99.90;;;;;;4994599;28;20219;-94
2020/12/10 03:41:54;;;;;;;18.70;5.43;;;2.50;99.90;;;;;;4970812;28;20263;-95
2020/12/10 03:44:20;;;;;;;7.00;5.67;;;2.50;99.90;;;;;;4988531;28;20243;-94
2020/12/10 03:46:46;;;;;;;13.17;8.20;;;2.50;99.90;;;;;;4988679;28;20230;-94
2020/12/10 03:49:13;;;;;;;11.73;7.90;;;2.50;99.90;;;;;;4968974;28;20186;-95
2020/12/10 03:51:39;;;;;;;7.33;4.10;;;2.50;99.90;;;;;;4968536;28;20211;-95
2020/12/10 03:54:05;;;;;;;8.40;5.63;;;2.50;99.90;;;;;;4964926;28;20223;-96
2020/12/10 03:56:37;;;;;;;3.67;2.13;;;2.50;99.90;;;;;;4966900;28;20247;-94
2020/12/10 03:59:06;;;;;;;8.57;5.83;;;2.50;99.90;;;;;;4988282;28;20231;-95
2020/12/10 04:01:32;;;;;;;12.13;8.87;;;2.50;99.90;;;;;;4981651;28;20230;-93
2020/12/10 04:04:02;;;;;;;11.77;5.87;;;2.50;99.90;;;;;;4975638;28;20768;-94
2020/12/10 04:06:28;;;;;;;13.60;8.83;;;2.50;99.90;;;;;;4975488;28;20710;-96
2020/12/10 04:08:56;;;;;;;16.70;7.30;;;2.50;99.90;;;;;;4990560;28;20219;-94
2020/12/10 04:11:24;;;;;;;9.40;8.20;;;2.50;99.90;;;;;;4980454;28;20220;-94
2020/12/10 04:13:50;;;;;;;8.93;6.47;;;2.50;99.90;;;;;;4964733;28;20226;-94
2020/12/10 04:16:16;;;;;;;24.10;11.00;;;2.50;99.90;;;;;;4971342;28;20192;-94
2020/12/10 04:18:44;;;;;;;18.07;6.40;;;2.50;99.90;;;;;;4972605;28;20258;-94
2020/12/10 04:21:11;;;;;;;11.57;6.83;;;2.50;99.90;;;;;;4960513;28;20256;-93
2020/12/10 04:23:42;;;;;;;13.70;8.23;;;2.50;99.90;;;;;;4979221;28;20218;-95
2020/12/10 04:26:08;;;;;;;15.37;8.60;;;2.50;99.90;;;;;;4979829;28;20263;-95
2020/12/10 04:28:34;;;;;;;4.90;4.40;;;2.50;99.90;;;;;;4958036;28;20215;-95
2020/12/10 04:31:00;;;;;;;34.47;6.60;;;2.50;99.90;;;;;;4972776;28;20541;-94
2020/12/10 04:33:26;;;;;;;10.23;7.27;;;2.50;99.90;;;;;;4956620;28;20263;-95
2020/12/10 04:35:52;;;;;;;5.97;2.93;;;2.50;99.90;;;;;;4969652;28;20220;-94
2020/12/10 04:38:18;;;;;;;8.17;7.40;;;2.40;99.90;;;;;;4967855;28;20293;-94
2020/12/10 04:40:47;;;;;;;13.53;8.97;;;2.40;99.90;;;;;;4968391;28;21043;-94
2020/12/10 04:43:14;;;;;;;12.03;7.10;;;2.40;99.90;;;;;;4970966;28;20180;-94
2020/12/10 04:45:44;;;;;;;12.20;8.43;;;2.40;99.90;;;;;;4990687;28;20250;-93
2020/12/10 04:48:10;;;;;;;9.83;5.07;;;2.40;99.90;;;;;;4968507;28;20220;-94
2020/12/10 04:50:37;;;;;;;10.00;7.47;;;2.30;99.90;;;;;;4966862;28;20576;-94
2020/12/10 04:53:04;;;;;;;8.30;6.00;;;2.30;99.90;;;;;;4986247;28;20668;-94
2020/12/10 04:55:31;;;;;;;13.40;9.40;;;2.30;99.90;;;;;;4988120;28;20219;-93
2020/12/10 04:58:00;;;;;;;17.87;8.43;;;2.30;99.90;;;;;;4974015;28;20267;-93
2020/12/10 05:00:30;;;;;;;12.57;4.83;;;2.30;99.90;;;;;;4953616;28;20221;-94
2020/12/10 05:02:58;;;;;;;7.73;6.30;;;2.30;99.90;;;;;;4986837;28;20259;-94
2020/12/10 05:05:32;;;;;;;6.73;3.93;;;2.30;99.90;;;;;;4968340;28;20242;-94
2020/12/10 05:08:02;;;;;;;6.30;5.07;;;2.20;99.90;;;;;;4968444;28;20302;-94
2020/12/10 05:10:28;;;;;;;10.67;6.87;;;2.20;99.90;;;;;;4986299;28;20838;-94
2020/12/10 05:13:08;;;;;;;16.80;8.03;;;2.20;99.90;;;;;;4972288;28;20199;-94
2020/12/10 05:15:38;;;;;;;8.07;4.67;;;2.20;99.90;;;;;;4992081;28;20208;-93
2020/12/10 05:18:09;;;;;;;13.30;6.03;;;2.10;99.90;;;;;;4970176;28;20243;-93
2020/12/10 05:20:43;;;;;;;5.63;4.63;;;2.10;99.90;;;;;;4991405;28;20212;-92
2020/12/10 05:23:14;;;;;;;8.20;6.13;;;2.00;99.90;;;;;;4965994;28;20212;-93
2020/12/10 05:25:53;;;;;;;9.50;5.47;;;1.90;99.90;;;;;;4981633;28;20223;-93
2020/12/10 05:28:21;;;;;;;8.27;4.50;;;1.90;99.90;;;;;;4960144;28;20301;-95
2020/12/10 05:31:17;;;;;;;7.17;2.43;;;1.80;99.90;;;;;;4970638;28;20215;-93
2020/12/10 05:34:00;;;;;;;6.17;4.03;;;1.80;99.90;;;;;;4989529;28;20224;-92
2020/12/10 05:36:28;;;;;;;5.23;4.63;;;1.70;99.90;;;;;;4988352;28;20263;-95
2020/12/10 05:39:10;;;;;;;7.20;3.80;;;1.70;99.90;;;;;;4969762;28;20318;-92
2020/12/10 05:41:44;;;;;;;12.70;6.93;;;1.60;99.90;;;;;;4968967;28;20242;-93
2020/12/10 05:44:13;;;;;;;8.30;5.20;;;1.60;99.90;;;;;;4952268;28;20220;-92
2020/12/10 05:46:39;;;;;;;6.13;3.27;;;1.60;99.90;;;;;;4953229;28;20215;-93
2020/12/10 05:49:14;;;;;;;9.43;5.27;;;1.60;99.90;;;;;;4953469;28;20261;-92
2020/12/10 05:51:50;;;;;;;8.97;4.77;;;1.50;99.90;;;;;;4985293;28;20199;-93
2020/12/10 05:54:18;;;;;;;8.80;8.00;;;1.50;99.90;;;;;;4968842;28;20211;-94
2020/12/10 05:56:53;;;;;;;2.50;2.30;;;1.40;99.90;;;;;;4985394;28;20232;-93
2020/12/10 05:59:19;;;;;;;4.63;3.30;;;1.40;99.90;;;;;;4988986;28;21164;-94
2020/12/10 06:01:49;;;;;;;9.73;6.80;;;1.40;99.90;;;;;;4963132;28;20228;-94
2020/12/10 06:04:15;;;;;;;8.27;5.43;;;1.50;99.90;;;;;;4946591;28;20294;-94
2020/12/10 06:06:44;;;;;;;2.70;2.50;;;1.40;99.90;;;;;;4985656;28;20196;-93
2020/12/10 06:09:17;;;;;;;7.53;3.53;;;1.40;99.90;;;;;;4965416;28;20282;-94
2020/12/10 06:11:44;;;;;;;11.87;4.13;;;1.40;99.90;;;;;;4983009;28;20235;-94
2020/12/10 06:14:10;;;;;;;4.47;3.87;;;1.30;99.90;;;;;;4966525;28;20628;-95
2020/12/10 06:16:39;;;;;;;7.83;4.87;;;1.40;99.90;;;;;;4968146;28;20247;-95
2020/12/10 06:19:10;;;;;;;3.43;2.30;;;1.40;99.90;;;;;;4970944;28;20238;-95
2020/12/10 06:21:42;;;;;;;7.10;5.80;;;1.40;99.90;;;;;;4967710;28;20239;-94
2020/12/10 06:24:26;;;;;;;2.33;2.23;;;1.40;99.90;;;;;;4984726;28;20224;-95
2020/12/10 06:26:56;;;;;;;4.83;4.30;;;1.40;99.90;;;;;;4979608;28;21192;-93
2020/12/10 06:29:26;;;;;;;5.37;4.07;;;1.30;99.90;;;;;;4979690;28;20223;-94
2020/12/10 06:32:32;;;;;;;6.77;5.83;;;1.40;99.90;;;;;;4955230;28;20242;-93
2020/12/10 06:35:03;;;;;;;4.30;3.47;;;1.40;99.90;;;;;;4953013;28;20223;-94
2020/12/10 06:37:30;;;;;;;2.07;1.97;;;1.40;99.90;;;;;;4989849;28;20220;-94
2020/12/10 06:40:04;;;;;;;2.50;1.80;;;1.40;99.90;;;;;;4958424;28;20184;-96
2020/12/10 06:42:48;;;;;;;2.50;2.33;;;1.40;99.90;;;;;;4984542;28;20278;-91
2020/12/10 06:45:25;;;;;;;9.83;5.63;;;1.40;99.90;;;;;;4951856;28;20269;-93
2020/12/10 06:47:51;;;;;;;3.50;2.30;;;1.40;99.90;;;;;;4967046;28;20223;-93
2020/12/10 06:50:25;;;;;;;0.50;0.50;;;1.40;99.90;;;;;;4933072;28;20259;-92
2020/12/10 06:53:12;;;;;;;4.13;3.57;;;1.30;99.90;;;;;;4967620;28;20271;-93
2020/12/10 06:58:44;;;;;;;5.10;3.90;;;1.30;99.90;;;;;;4982699;28;20259;-92
2020/12/10 07:01:28;;;;;;;12.07;5.03;;;1.30;99.90;;;;;;4980900;28;20199;-92
2020/12/10 07:07:21;;;;;;;3.53;3.33;;;1.30;99.90;;;;;;4971673;28;20252;-93
2020/12/10 07:09:59;;;;;;;4.77;1.77;;;1.30;99.90;;;;;;4976657;28;20261;-93
2020/12/10 07:12:41;;;;;;;24.23;2.63;;;1.40;99.90;;;;;;4954510;28;20233;-94
2020/12/10 07:15:23;;;;;;;21.17;6.23;;;1.40;99.90;;;;;;4967118;28;20220;-95
2020/12/10 07:17:50;;;;;;;3.27;2.80;;;1.40;99.90;;;;;;4966977;28;20219;-95
2020/12/10 07:20:16;;;;;;;8.33;4.40;;;1.40;99.90;;;;;;4951631;28;20211;-93
2020/12/10 07:22:42;;;;;;;2.80;2.57;;;1.30;99.90;;;;;;4964751;28;20732;-93
2020/12/10 07:25:08;;;;;;;6.40;5.83;;;1.30;99.90;;;;;;4966007;28;20188;-92
2020/12/10 07:27:37;;;;;;;9.90;2.27;;;1.40;99.90;;;;;;4958160;28;20187;-92
2020/12/10 07:30:12;;;;;;;12.67;8.30;;;1.40;99.90;;;;;;4966076;28;20298;-93
2020/12/10 07:32:41;;;;;;;2.47;2.30;;;1.40;99.90;;;;;;4950578;28;20215;-95
2020/12/10 07:35:09;;;;;;;3.10;2.80;;;1.40;99.90;;;;;;4987973;28;20227;-92
2020/12/10 07:37:37;;;;;;;3.03;2.83;;;1.40;99.90;;;;;;4973944;28;20226;-93
2020/12/10 07:40:18;;;;;;;8.97;4.10;;;1.40;99.90;;;;;;4968431;28;20188;-93
2020/12/10 07:42:44;;;;;;;3.13;2.83;;;1.50;99.90;;;;;;4942492;28;20216;-94
2020/12/10 07:45:13;;;;;;;7.87;3.23;;;1.50;99.90;;;;;;4981464;28;21136;-93
2020/12/10 07:47:39;;;;;;;3.50;3.20;;;1.50;99.90;;;;;;4965965;28;20239;-94
2020/12/10 07:50:22;;;;;;;11.00;4.17;;;1.50;99.90;;;;;;4983000;28;20262;-93
2020/12/10 07:52:50;;;;;;;5.00;2.60;;;1.50;99.90;;;;;;4966538;28;20255;-94
2020/12/10 07:55:37;;;;;;;3.53;2.10;;;1.50;99.90;;;;;;4966114;28;21626;-94
2020/12/10 07:58:17;;;;;;;10.33;5.57;;;1.50;99.90;;;;;;4983549;28;20277;-93
2020/12/10 08:00:46;;;;;;;3.30;3.00;;;1.50;99.90;;;;;;4983670;28;20786;-92
2020/12/10 08:03:20;;;;;;;8.97;4.07;;;1.40;99.90;;;;;;4966746;28;20224;-94
2020/12/10 08:06:11;;;;;;;6.00;4.20;;;1.40;99.90;;;;;;4984325;28;20249;-93
2020/12/10 08:08:42;;;;;;;3.63;3.13;;;1.40;99.90;;;;;;4983308;28;20311;-93
2020/12/10 08:11:09;;;;;;;4.93;4.57;;;1.40;99.90;;;;;;4966478;28;20235;-94
2020/12/10 08:13:37;;;;;;;41.13;8.00;;;1.40;99.90;;;;;;4984191;28;20223;-96
2020/12/10 08:16:08;;;;;;;4.83;3.50;;;1.40;99.90;;;;;;4986018;28;20298;-95
2020/12/10 08:18:34;;;;;;;6.93;5.33;;;1.40;99.90;;;;;;4969265;28;20212;-94
2020/12/10 08:21:06;;;;;;;3.20;2.97;;;1.50;99.90;;;;;;4988987;28;20274;-94
2020/12/10 08:23:45;;;;;;;9.37;3.80;;;1.50;99.90;;;;;;4962198;28;20247;-95
2020/12/10 08:26:16;;;;;;;3.40;3.10;;;1.50;99.90;;;;;;4964913;28;20219;-94
2020/12/10 08:28:55;;;;;;;5.60;3.50;;;1.50;99.90;;;;;;4973749;28;20315;-94
2020/12/10 08:31:32;;;;;;;3.90;3.00;;;1.50;99.90;;;;;;4961167;28;20294;-94
2020/12/10 08:33:58;;;;;;;5.57;3.83;;;1.50;99.90;;;;;;4978390;28;20191;-95
2020/12/10 08:36:36;;;;;;;13.33;4.47;;;1.50;99.90;;;;;;4949920;28;20720;-94
2020/12/10 08:39:07;;;;;;;9.90;5.03;;;1.50;99.90;;;;;;4972812;28;20286;-95
2020/12/10 08:41:35;;;;;;;8.23;4.37;;;1.50;99.90;;;;;;4966018;28;20285;-95
2020/12/10 08:44:05;;;;;;;7.17;3.83;;;1.40;99.90;;;;;;4956703;28;20228;-95
2020/12/10 08:46:32;;;;;;;3.10;2.90;;;1.50;99.90;;;;;;4946445;28;20234;-94
2020/12/10 08:49:21;;;;;;;10.43;6.70;;;1.60;99.90;;;;;;4968163;28;20194;-95
2020/12/10 08:51:48;;;;;;;3.00;2.80;;;1.60;99.90;;;;;;4975865;28;20243;-95
2020/12/10 08:54:17;;;;;;;7.23;4.17;;;1.60;99.90;;;;;;4977575;28;20260;-94
2020/12/10 08:56:43;;;;;;;6.47;2.80;;;1.70;99.90;;;;;;4976079;28;20219;-93
2020/12/10 08:59:10;;;;;;;9.57;6.40;;;1.60;99.90;;;;;;4975448;28;20234;-95
2020/12/10 09:01:51;;;;;;;5.10;4.60;;;1.60;99.90;;;;;;4960582;28;20421;-94
2020/12/10 09:04:17;;;;;;;7.13;3.37;;;1.70;99.90;;;;;;4967244;28;20211;-94
2020/12/10 09:06:53;;;;;;;7.20;4.50;;;1.70;99.90;;;;;;4957993;28;20206;-93
2020/12/10 09:09:22;;;;;;;13.97;5.37;;;1.70;99.90;;;;;;4929738;28;20292;-94
2020/12/10 09:11:50;;;;;;;2.27;2.07;;;1.70;99.90;;;;;;4955263;28;20255;-94
2020/12/10 09:14:19;;;;;;;9.57;5.97;;;1.70;99.90;;;;;;4953382;28;20354;-94
2020/12/10 09:16:50;;;;;;;79.77;10.83;;;1.70;99.90;;;;;;4943090;28;20248;-94
2020/12/10 09:19:18;;;;;;;4.27;3.93;;;1.70;99.90;;;;;;4969660;28;20188;-94
2020/12/10 09:21:44;;;;;;;2.33;2.10;;;1.80;99.90;;;;;;4966174;28;20184;-94
2020/12/10 09:24:15;;;;;;;1.77;1.53;;;1.70;99.90;;;;;;4963659;28;20323;-93
2020/12/10 09:26:43;;;;;;;4.90;4.27;;;1.70;99.90;;;;;;4949224;28;20611;-92
2020/12/10 09:29:09;;;;;;;8.27;6.30;;;1.70;99.90;;;;;;4948282;28;20277;-91
2020/12/10 09:31:36;;;;;;;7.60;5.07;;;1.70;99.90;;;;;;4955252;28;20246;-92
2020/12/10 09:34:01;;;;;;;10.33;4.80;;;1.70;99.90;;;;;;4982569;28;20233;-91
2020/12/10 09:36:27;;;;;;;9.13;4.43;;;1.80;99.90;;;;;;4956888;28;21031;-94
2020/12/10 09:38:53;;;;;;;5.40;3.17;;;1.70;99.90;;;;;;4973475;28;20598;-94
2020/12/10 09:41:35;;;;;;;7.90;7.13;;;1.70;99.90;;;;;;4971855;28;20243;-94
2020/12/10 09:44:01;;;;;;;4.73;4.20;;;1.70;99.90;;;;;;4964814;28;20234;-94
2020/12/10 09:46:32;;;;;;;3.63;2.87;;;1.80;99.90;;;;;;4970719;28;21113;-94
2020/12/10 09:48:58;;;;;;;5.67;5.23;;;1.80;99.90;;;;;;4975344;28;20198;-94
2020/12/10 09:51:23;;;;;;;3.00;1.93;;;1.80;99.90;;;;;;4965007;28;20236;-94
2020/12/10 09:54:01;;;;;;;6.13;3.17;;;1.80;99.90;;;;;;4979045;28;20306;-93
2020/12/10 09:59:17;;;;;;;12.63;5.03;;;1.80;99.90;;;;;;4986163;28;20278;-93
2020/12/10 10:01:46;;;;;;;6.87;5.60;;;1.80;99.90;;;;;;4964707;28;20330;-94
2020/12/10 10:04:11;;;;;;;52.37;5.67;;;1.90;99.90;;;;;;4972149;28;20192;-92
2020/12/10 10:06:37;;;;;;;18.70;10.53;;;1.90;99.90;;;;;;4949799;28;20239;-93
2020/12/10 10:09:05;;;;;;;6.70;6.03;;;1.80;99.90;;;;;;4955584;28;20215;-95
2020/12/10 10:11:34;;;;;;;15.57;8.80;;;1.80;99.90;;;;;;4965145;28;20241;-92
2020/12/10 10:13:59;;;;;;;5.93;5.43;;;1.70;99.90;;;;;;4968761;28;20908;-86
2020/12/10 10:16:32;;;;;;;14.37;6.90;;;1.80;99.90;;;;;;4984275;28;20275;-92
2020/12/10 10:18:59;;;;;;;6.07;4.70;;;2.00;99.90;;;;;;4970077;28;20203;-89
2020/12/10 10:21:28;;;;;;;20.53;7.67;;;1.90;99.90;;;;;;4967548;28;20238;-92
2020/12/10 10:23:56;;;;;;;15.03;8.33;;;2.00;99.90;;;;;;4964482;28;20732;-88
2020/12/10 10:26:23;;;;;;;5.50;4.00;;;2.00;99.90;;;;;;4967470;28;20219;-90
2020/12/10 10:28:52;;;;;;;6.47;5.90;;;2.10;99.90;;;;;;4983736;28;20247;-89
2020/12/10 10:31:19;;;;;;;13.93;7.80;;;2.00;99.90;;;;;;4967073;28;20261;-88
2020/12/10 10:33:45;;;;;;;19.63;7.30;;;2.00;99.90;;;;;;4967572;28;20630;-89
2020/12/10 10:36:13;;;;;;;5.70;4.83;;;2.00;99.90;;;;;;4967444;28;20224;-91
2020/12/10 10:38:39;;;;;;;14.97;6.13;;;2.00;99.90;;;;;;4967778;28;20220;-89
2020/12/10 10:41:06;;;;;;;9.33;5.13;;;2.00;99.90;;;;;;4949647;28;20208;-90
2020/12/10 10:43:35;;;;;;;14.90;9.30;;;2.00;99.90;;;;;;4989826;28;20223;-90
2020/12/10 10:46:02;;;;;;;11.90;7.63;;;2.10;99.90;;;;;;4983049;28;20875;-90
2020/12/10 10:48:31;;;;;;;9.60;5.87;;;2.00;99.90;;;;;;4984370;28;20208;-90
2020/12/10 10:50:57;;;;;;;18.17;8.67;;;2.00;99.90;;;;;;4968077;28;20227;-90
2020/12/10 10:53:24;;;;;;;4.37;3.33;;;2.00;99.90;;;;;;4968147;28;20247;-89
2020/12/10 10:55:59;;;;;;;11.47;8.00;;;2.00;99.90;;;;;;4983508;28;20255;-89
2020/12/10 10:58:25;;;;;;;11.13;6.43;;;2.00;99.90;;;;;;4971994;28;20250;-90
2020/12/10 11:01:16;;;;;;;17.50;7.07;;;2.00;99.90;;;;;;4953156;28;20204;-89
2020/12/10 11:03:42;;;;;;;10.70;8.20;;;2.00;99.90;;;;;;4966946;28;20230;-89
2020/12/10 11:06:13;;;;;;;22.73;6.30;;;2.00;99.90;;;;;;4949553;28;20681;-91
2020/12/10 11:08:59;;;;;;;6.83;5.47;;;2.00;99.90;;;;;;4975029;28;20322;-90
2020/12/10 11:11:31;;;;;;;6.40;5.20;;;2.00;99.90;;;;;;4967352;28;20243;-91
2020/12/10 11:13:57;;;;;;;12.93;6.20;;;2.00;99.90;;;;;;4983508;28;20801;-91
2020/12/10 11:16:23;;;;;;;14.13;6.17;;;2.00;99.90;;;;;;4955513;28;20670;-90
2020/12/10 11:18:49;;;;;;;10.50;6.13;;;1.90;99.90;;;;;;4969260;28;20202;-92
2020/12/10 11:21:15;;;;;;;8.43;6.07;;;1.80;99.90;;;;;;4967480;28;21013;-90
2020/12/10 11:23:42;;;;;;;7.07;6.37;;;1.80;99.90;;;;;;4950869;28;20874;-89
2020/12/10 11:26:08;;;;;;;6.90;6.27;;;1.90;99.90;;;;;;4950751;28;20223;-93
2020/12/10 11:29:03;;;;;;;11.47;5.70;;;1.90;99.90;;;;;;4974459;28;20301;-92
2020/12/10 11:31:29;;;;;;;8.77;6.73;;;1.90;99.90;;;;;;4950702;28;20234;-94
2020/12/10 11:33:54;;;;;;;8.73;7.13;;;2.00;99.90;;;;;;4969487;28;21137;-94
2020/12/10 11:36:21;;;;;;;2.47;2.37;;;2.00;99.90;;;;;;4966009;28;20593;-91
2020/12/10 11:38:47;;;;;;;11.80;10.00;;;2.10;99.90;;;;;;4950932;28;20231;-91
2020/12/10 11:41:12;;;;;;;6.07;5.27;;;2.10;99.90;;;;;;4988958;28;20224;-92
2020/12/10 11:43:38;;;;;;;17.77;9.27;;;2.10;99.90;;;;;;4968092;28;20681;-89
2020/12/10 11:46:04;;;;;;;7.80;3.80;;;2.20;99.90;;;;;;4968878;28;20183;-90
2020/12/10 11:48:30;;;;;;;9.13;6.93;;;2.20;99.90;;;;;;4966865;28;20218;-87
2020/12/10 11:50:56;;;;;;;5.77;5.27;;;2.10;99.90;;;;;;4966185;28;20239;-90
2020/12/10 11:53:32;;;;;;;6.83;5.40;;;2.00;99.90;;;;;;4951394;28;20236;-91
2020/12/10 11:55:58;;;;;;;10.20;6.17;;;1.90;99.90;;;;;;4950926;28;20282;-90
2020/12/10 11:58:35;;;;;;;22.20;8.07;;;1.90;99.90;;;;;;4982243;28;20388;-93
2020/12/10 12:01:01;;;;;;;13.33;7.17;;;1.90;99.90;;;;;;4968139;28;20269;-90
2020/12/10 12:03:27;;;;;;;4.43;3.73;;;1.90;99.90;;;;;;4956200;28;20563;-91
2020/12/10 12:05:56;;;;;;;11.00;7.37;;;2.00;99.90;;;;;;4972637;28;20212;-89
2020/12/10 12:08:28;;;;;;;20.70;7.30;;;2.00;99.90;;;;;;4986011;28;20241;-90
2020/12/10 12:10:54;;;;;;;13.50;6.97;;;2.00;99.90;;;;;;4949033;28;20231;-93
2020/12/10 12:13:21;;;;;;;13.27;6.20;;;2.00;99.90;;;;;;4966732;28;20198;-92
2020/12/10 12:15:47;;;;;;;22.63;9.63;;;2.00;99.90;;;;;;4984241;28;20247;-91
2020/12/10 12:18:37;;;;;;;6.97;5.80;;;1.90;99.90;;;;;;4982099;28;20216;-90
2020/12/10 12:21:03;;;;;;;9.20;6.67;;;1.80;99.90;;;;;;4963888;28;20224;-90
2020/12/10 12:23:29;;;;;;;15.37;8.53;;;1.80;99.90;;;;;;4949775;28;20227;-94
2020/12/10 12:26:11;;;;;;;13.57;9.37;;;1.90;99.90;;;;;;4965043;28;20230;-92
2020/12/10 12:28:37;;;;;;;25.63;11.40;;;1.90;99.90;;;;;;4948571;28;20223;-90
2020/12/10 12:31:03;;;;;;;9.33;6.07;;;2.00;99.90;;;;;;4966780;28;20246;-91
2020/12/10 12:33:34;;;;;;;12.83;6.73;;;2.00;99.90;;;;;;4958099;28;20702;-89
2020/12/10 12:35:59;;;;;;;8.73;7.07;;;1.90;99.90;;;;;;4948462;28;20219;-90
2020/12/10 12:38:33;;;;;;;27.13;4.93;;;1.80;99.90;;;;;;4973240;28;20278;-89
2020/12/10 12:40:59;;;;;;;16.43;6.17;;;1.70;99.90;;;;;;4957050;28;20595;-89
2020/12/10 12:43:27;;;;;;;5.40;4.90;;;1.70;99.90;;;;;;4964410;28;20238;-89
2020/12/10 12:45:53;;;;;;;14.83;7.50;;;1.70;99.90;;;;;;4973356;28;20204;-89
2020/12/10 12:48:26;;;;;;;16.70;7.27;;;1.70;99.90;;;;;;4965352;28;20220;-89
2020/12/10 12:50:53;;;;;;;6.20;4.50;;;1.60;99.90;;;;;;4973339;28;20250;-88
2020/12/10 12:53:19;;;;;;;19.03;7.60;;;1.60;99.90;;;;;;4989597;28;20315;-88
2020/12/10 12:55:55;;;;;;;18.67;6.87;;;1.70;99.90;;;;;;4957788;28;20211;-89
2020/12/10 12:58:21;;;;;;;6.03;4.13;;;1.80;99.90;;;;;;4960602;28;20228;-89
2020/12/10 13:00:51;;;;;;;10.50;3.63;;;1.70;99.90;;;;;;4966996;28;20662;-91
2020/12/10 13:03:16;;;;;;;12.87;8.00;;;1.70;99.90;;;;;;4964689;28;20216;-89
2020/12/10 13:05:42;;;;;;;9.83;7.37;;;1.70;99.90;;;;;;4964282;28;20216;-87
2020/12/10 13:08:08;;;;;;;7.33;5.00;;;1.80;99.90;;;;;;4988687;28;20224;-87
2020/12/10 13:10:38;;;;;;;9.13;4.67;;;1.80;99.90;;;;;;4948354;28;21146;-90